Terminal Aerodrome Forecast
Issued by NWS

Home | Current Version | Previous Version | Text Only | Print | Product List | Glossary On
Versions: 1 2 3 4 5 6 7 8 9 10 11 12 13 14 15 16 17 18
000
FTUS41 KGYX 310846 AAA
TAFAUG
TAF AMD
KAUG 310846Z 3109/0106 VRB03KT P6SM SCT050
     FM311400 35004KT P6SM SCT100 SCT200
     FM311700 06004KT P6SM OVC050=

USA.gov is the U.S. government's official web portal to all federal, state and local government web resources and services.